Rome, Georgia
Current Conditions -  °F | °C
As of 10:53 PM on Saturday 22 Nov 2014 (Local Time) from KRMG Reporting Station
Overcast Overcast  
Wind Chill: 12°   Ceiling: 2900
Heat Index: 12°   Visibility: 10mi
Dew Point: -3°   Wind: 3mph
Humidity: 35%   Direction: NA
Pressure: 30.2"   Gusts: NA
Location:  34.25°N, 85.17°W
Report Text: KRMG 230353Z AUTO VRB03KT 10SM OVC029 12/M03 A3020 RMK AO2 SLP224 T01221028
Loading
Personal Weather Stations






























Interactive Weather Map New forecast layout! Learn more

10-Day Weather Forecast

Advertisements
Track Severe Weather on mobile